Portada
METAR-TAF:

METAR-TAF

Aeropuertos :

Meierwik

Glücksburg, Alemania

latitud: 54-50N, longitud: 009-30E, altitud: 27 m

Observación

El informe se hizo hace 1 hora y 2 minutos, a las 17:20 UTC
Viento 15 kt del sur
Temperatura 6°C
Humedad 87%
Presión 997 hPa
Visibilidad: 9000 m
Cielo nuboso a una altura de 1200 ft

METAR: ETGG 131720Z 18015KT 9000 BKN012 06/04 Q0997 GRN

Hora: 19:22 (18:22 UTC)


TAF: falta

Observaciones y pronósticos meteorológicos de más de 4000 aeropuertos (mensajes METAR y TAF).

Los puntos amarillos y rojos representan las estaciones disponibles.

Ponga el ratón en el punto deseado para ver el nombre de la estación.

Haga clic para ver las observaciones y los pronósticos meteorológicos.

Para cambiar el mapa : haga clic en los botones verdes con una cruz de color negro para hacer un zoom, en el botón verde con un guión para alejar o en las flechas verdes para mapas adyacentes.


METAR-TAF: